sensor_id;sensor_type;location;lat;lon;timestamp;P1;durP1;ratioP1;P2;durP2;ratioP2
10523;SDS011;5310;48.638;9.060;2022-11-12T00:00:52;0.60;;;0.60;;
10523;SDS011;5310;48.638;9.060;2022-11-12T00:03:18;0.52;;;0.52;;
10523;SDS011;5310;48.638;9.060;2022-11-12T00:05:44;0.70;;;0.70;;
10523;SDS011;5310;48.638;9.060;2022-11-12T00:08:10;0.90;;;0.90;;
10523;SDS011;5310;48.638;9.060;2022-11-12T00:10:36;0.70;;;0.70;;
10523;SDS011;5310;48.638;9.060;2022-11-12T00:13:04;0.60;;;0.60;;
10523;SDS011;5310;48.638;9.060;2022-11-12T00:15:30;0.60;;;0.60;;
10523;SDS011;5310;48.638;9.060;2022-11-12T00:17:56;0.50;;;0.50;;
10523;SDS011;5310;48.638;9.060;2022-11-12T00:20:22;0.60;;;0.60;;
10523;SDS011;5310;48.638;9.060;2022-11-12T00:22:48;0.82;;;0.82;;
10523;SDS011;5310;48.638;9.060;2022-11-12T00:25:14;0.88;;;0.88;;
10523;SDS011;5310;48.638;9.060;2022-11-12T00:27:40;0.80;;;0.80;;
10523;SDS011;5310;48.638;9.060;2022-11-12T00:30:06;0.65;;;0.65;;
10523;SDS011;5310;48.638;9.060;2022-11-12T00:32:34;0.60;;;0.60;;
10523;SDS011;5310;48.638;9.060;2022-11-12T00:35:03;0.60;;;0.60;;
10523;SDS011;5310;48.638;9.060;2022-11-12T00:37:29;0.55;;;0.55;;
10523;SDS011;5310;48.638;9.060;2022-11-12T00:39:56;0.80;;;0.80;;
10523;SDS011;5310;48.638;9.060;2022-11-12T00:42:22;1.00;;;1.00;;
10523;SDS011;5310;48.638;9.060;2022-11-12T00:44:48;0.70;;;0.70;;
10523;SDS011;5310;48.638;9.060;2022-11-12T00:47:14;0.63;;;0.63;;
10523;SDS011;5310;48.638;9.060;2022-11-12T00:49:40;0.70;;;0.70;;
10523;SDS011;5310;48.638;9.060;2022-11-12T00:52:06;0.60;;;0.60;;
10523;SDS011;5310;48.638;9.060;2022-11-12T00:54:32;0.50;;;0.50;;
10523;SDS011;5310;48.638;9.060;2022-11-12T00:56:58;0.52;;;0.52;;
10523;SDS011;5310;48.638;9.060;2022-11-12T00:59:24;1.00;;;1.00;;
10523;SDS011;5310;48.638;9.060;2022-11-12T01:01:50;0.85;;;0.85;;
10523;SDS011;5310;48.638;9.060;2022-11-12T01:04:18;0.70;;;0.70;;
10523;SDS011;5310;48.638;9.060;2022-11-12T01:06:44;0.70;;;0.70;;
10523;SDS011;5310;48.638;9.060;2022-11-12T01:09:10;0.65;;;0.65;;
10523;SDS011;5310;48.638;9.060;2022-11-12T01:11:36;0.60;;;0.60;;
10523;SDS011;5310;48.638;9.060;2022-11-12T01:14:03;1.00;;;1.00;;
10523;SDS011;5310;48.638;9.060;2022-11-12T01:16:31;0.90;;;0.90;;
10523;SDS011;5310;48.638;9.060;2022-11-12T01:19:00;0.90;;;0.90;;
10523;SDS011;5310;48.638;9.060;2022-11-12T01:21:28;0.80;;;0.80;;
10523;SDS011;5310;48.638;9.060;2022-11-12T01:23:57;0.80;;;0.80;;
10523;SDS011;5310;48.638;9.060;2022-11-12T01:26:24;0.70;;;0.70;;
10523;SDS011;5310;48.638;9.060;2022-11-12T01:28:53;0.60;;;0.60;;
10523;SDS011;5310;48.638;9.060;2022-11-12T01:33:46;0.63;;;0.63;;
10523;SDS011;5310;48.638;9.060;2022-11-12T01:36:12;0.88;;;0.88;;
10523;SDS011;5310;48.638;9.060;2022-11-12T01:38:40;0.90;;;0.90;;
10523;SDS011;5310;48.638;9.060;2022-11-12T01:41:07;0.90;;;0.90;;
10523;SDS011;5310;48.638;9.060;2022-11-12T01:43:33;0.90;;;0.90;;
10523;SDS011;5310;48.638;9.060;2022-11-12T01:46:02;0.80;;;0.80;;
10523;SDS011;5310;48.638;9.060;2022-11-12T01:48:34;0.70;;;0.70;;
10523;SDS011;5310;48.638;9.060;2022-11-12T01:51:30;0.60;;;0.60;;
10523;SDS011;5310;48.638;9.060;2022-11-12T01:54:03;0.80;;;0.80;;
10523;SDS011;5310;48.638;9.060;2022-11-12T01:56:31;1.00;;;1.00;;
10523;SDS011;5310;48.638;9.060;2022-11-12T01:58:59;1.00;;;1.00;;
10523;SDS011;5310;48.638;9.060;2022-11-12T02:01:31;0.90;;;0.90;;
10523;SDS011;5310;48.638;9.060;2022-11-12T02:03:58;0.80;;;0.80;;
10523;SDS011;5310;48.638;9.060;2022-11-12T02:06:25;0.77;;;0.77;;
10523;SDS011;5310;48.638;9.060;2022-11-12T02:08:51;0.70;;;0.70;;
10523;SDS011;5310;48.638;9.060;2022-11-12T02:11:18;0.70;;;0.70;;
10523;SDS011;5310;48.638;9.060;2022-11-12T02:13:44;0.60;;;0.60;;
10523;SDS011;5310;48.638;9.060;2022-11-12T02:16:30;0.60;;;0.60;;
10523;SDS011;5310;48.638;9.060;2022-11-12T02:18:57;0.68;;;0.68;;
10523;SDS011;5310;48.638;9.060;2022-11-12T02:21:23;0.70;;;0.70;;
10523;SDS011;5310;48.638;9.060;2022-11-12T02:23:56;1.00;;;1.00;;
10523;SDS011;5310;48.638;9.060;2022-11-12T02:26:24;0.90;;;0.90;;
10523;SDS011;5310;48.638;9.060;2022-11-12T02:28:50;0.80;;;0.80;;
10523;SDS011;5310;48.638;9.060;2022-11-12T02:31:16;0.70;;;0.70;;
10523;SDS011;5310;48.638;9.060;2022-11-12T02:33:42;0.70;;;0.70;;
10523;SDS011;5310;48.638;9.060;2022-11-12T02:36:08;0.70;;;0.70;;
10523;SDS011;5310;48.638;9.060;2022-11-12T02:38:33;0.60;;;0.60;;
10523;SDS011;5310;48.638;9.060;2022-11-12T02:40:59;0.60;;;0.60;;
10523;SDS011;5310;48.638;9.060;2022-11-12T02:43:25;0.60;;;0.60;;
10523;SDS011;5310;48.638;9.060;2022-11-12T02:45:51;0.60;;;0.60;;
10523;SDS011;5310;48.638;9.060;2022-11-12T02:48:17;0.60;;;0.60;;
10523;SDS011;5310;48.638;9.060;2022-11-12T02:50:43;0.50;;;0.50;;
10523;SDS011;5310;48.638;9.060;2022-11-12T02:53:09;0.68;;;0.68;;
10523;SDS011;5310;48.638;9.060;2022-11-12T02:55:35;0.70;;;0.70;;
10523;SDS011;5310;48.638;9.060;2022-11-12T02:58:00;0.82;;;0.82;;
10523;SDS011;5310;48.638;9.060;2022-11-12T03:00:26;1.00;;;1.00;;
10523;SDS011;5310;48.638;9.060;2022-11-12T03:02:51;1.00;;;1.00;;
10523;SDS011;5310;48.638;9.060;2022-11-12T03:05:23;1.00;;;1.00;;
10523;SDS011;5310;48.638;9.060;2022-11-12T03:07:49;0.90;;;0.90;;
10523;SDS011;5310;48.638;9.060;2022-11-12T03:10:15;0.80;;;0.80;;
10523;SDS011;5310;48.638;9.060;2022-11-12T03:12:41;0.88;;;0.88;;
10523;SDS011;5310;48.638;9.060;2022-11-12T03:15:07;0.80;;;0.80;;
10523;SDS011;5310;48.638;9.060;2022-11-12T03:17:33;0.80;;;0.80;;
10523;SDS011;5310;48.638;9.060;2022-11-12T03:19:59;0.80;;;0.80;;
10523;SDS011;5310;48.638;9.060;2022-11-12T03:22:24;0.70;;;0.70;;
10523;SDS011;5310;48.638;9.060;2022-11-12T03:24:50;0.70;;;0.70;;
10523;SDS011;5310;48.638;9.060;2022-11-12T03:27:16;0.70;;;0.70;;
10523;SDS011;5310;48.638;9.060;2022-11-12T03:29:42;0.70;;;0.70;;
10523;SDS011;5310;48.638;9.060;2022-11-12T03:32:08;0.63;;;0.63;;
10523;SDS011;5310;48.638;9.060;2022-11-12T03:34:34;0.70;;;0.70;;
10523;SDS011;5310;48.638;9.060;2022-11-12T03:37:00;0.60;;;0.60;;
10523;SDS011;5310;48.638;9.060;2022-11-12T03:39:27;0.60;;;0.60;;
10523;SDS011;5310;48.638;9.060;2022-11-12T03:41:53;0.60;;;0.60;;
10523;SDS011;5310;48.638;9.060;2022-11-12T03:44:19;0.50;;;0.50;;
10523;SDS011;5310;48.638;9.060;2022-11-12T03:46:46;0.60;;;0.60;;
10523;SDS011;5310;48.638;9.060;2022-11-12T03:49:12;0.60;;;0.60;;
10523;SDS011;5310;48.638;9.060;2022-11-12T03:51:38;0.77;;;0.77;;
10523;SDS011;5310;48.638;9.060;2022-11-12T03:54:04;0.82;;;0.82;;
10523;SDS011;5310;48.638;9.060;2022-11-12T03:56:30;0.90;;;0.90;;
10523;SDS011;5310;48.638;9.060;2022-11-12T03:58:56;1.00;;;1.00;;
10523;SDS011;5310;48.638;9.060;2022-11-12T04:01:21;1.00;;;1.00;;
10523;SDS011;5310;48.638;9.060;2022-11-12T04:03:47;1.00;;;1.00;;
10523;SDS011;5310;48.638;9.060;2022-11-12T04:06:14;1.00;;;1.00;;
10523;SDS011;5310;48.638;9.060;2022-11-12T04:08:59;0.80;;;0.80;;
10523;SDS011;5310;48.638;9.060;2022-11-12T04:11:24;0.80;;;0.80;;
10523;SDS011;5310;48.638;9.060;2022-11-12T04:13:50;0.80;;;0.80;;
10523;SDS011;5310;48.638;9.060;2022-11-12T04:16:19;0.70;;;0.70;;
10523;SDS011;5310;48.638;9.060;2022-11-12T04:19:04;0.90;;;0.90;;
10523;SDS011;5310;48.638;9.060;2022-11-12T04:21:51;0.80;;;0.80;;
10523;SDS011;5310;48.638;9.060;2022-11-12T04:27:13;0.60;;;0.60;;
10523;SDS011;5310;48.638;9.060;2022-11-12T04:29:40;0.60;;;0.60;;
10523;SDS011;5310;48.638;9.060;2022-11-12T04:32:24;0.82;;;0.82;;
10523;SDS011;5310;48.638;9.060;2022-11-12T04:34:51;1.00;;;1.00;;
10523;SDS011;5310;48.638;9.060;2022-11-12T04:37:17;1.00;;;1.00;;
10523;SDS011;5310;48.638;9.060;2022-11-12T04:39:43;0.80;;;0.80;;
10523;SDS011;5310;48.638;9.060;2022-11-12T04:42:09;0.70;;;0.70;;
10523;SDS011;5310;48.638;9.060;2022-11-12T04:44:53;0.70;;;0.70;;
10523;SDS011;5310;48.638;9.060;2022-11-12T04:47:33;0.60;;;0.60;;
10523;SDS011;5310;48.638;9.060;2022-11-12T04:49:59;0.70;;;0.70;;
10523;SDS011;5310;48.638;9.060;2022-11-12T04:52:26;0.90;;;0.90;;
10523;SDS011;5310;48.638;9.060;2022-11-12T04:54:52;1.02;;;1.02;;
10523;SDS011;5310;48.638;9.060;2022-11-12T04:57:18;1.00;;;1.00;;
10523;SDS011;5310;48.638;9.060;2022-11-12T04:59:45;0.90;;;0.90;;
10523;SDS011;5310;48.638;9.060;2022-11-12T05:02:10;0.85;;;0.85;;
10523;SDS011;5310;48.638;9.060;2022-11-12T05:04:38;0.80;;;0.80;;
10523;SDS011;5310;48.638;9.060;2022-11-12T05:07:05;0.70;;;0.70;;
10523;SDS011;5310;48.638;9.060;2022-11-12T05:09:31;0.60;;;0.60;;
10523;SDS011;5310;48.638;9.060;2022-11-12T05:11:57;0.60;;;0.60;;
10523;SDS011;5310;48.638;9.060;2022-11-12T05:14:23;0.60;;;0.60;;
10523;SDS011;5310;48.638;9.060;2022-11-12T05:16:49;0.70;;;0.70;;
10523;SDS011;5310;48.638;9.060;2022-11-12T05:19:15;0.85;;;0.85;;
10523;SDS011;5310;48.638;9.060;2022-11-12T05:21:43;1.00;;;1.00;;
10523;SDS011;5310;48.638;9.060;2022-11-12T05:24:34;0.80;;;0.80;;
10523;SDS011;5310;48.638;9.060;2022-11-12T05:27:01;0.80;;;0.80;;
10523;SDS011;5310;48.638;9.060;2022-11-12T05:29:27;0.80;;;0.80;;
10523;SDS011;5310;48.638;9.060;2022-11-12T05:31:53;0.70;;;0.70;;
10523;SDS011;5310;48.638;9.060;2022-11-12T05:34:20;0.68;;;0.68;;
10523;SDS011;5310;48.638;9.060;2022-11-12T05:36:46;0.60;;;0.60;;
10523;SDS011;5310;48.638;9.060;2022-11-12T05:39:12;0.77;;;0.77;;
10523;SDS011;5310;48.638;9.060;2022-11-12T05:41:38;1.00;;;1.00;;
10523;SDS011;5310;48.638;9.060;2022-11-12T05:44:05;1.00;;;1.00;;
10523;SDS011;5310;48.638;9.060;2022-11-12T05:46:31;1.00;;;1.00;;
10523;SDS011;5310;48.638;9.060;2022-11-12T05:48:57;0.90;;;0.90;;
10523;SDS011;5310;48.638;9.060;2022-11-12T05:51:23;0.80;;;0.80;;
10523;SDS011;5310;48.638;9.060;2022-11-12T05:53:49;0.77;;;0.77;;
10523;SDS011;5310;48.638;9.060;2022-11-12T05:56:15;0.70;;;0.70;;
10523;SDS011;5310;48.638;9.060;2022-11-12T05:58:41;0.70;;;0.70;;
10523;SDS011;5310;48.638;9.060;2022-11-12T06:01:07;0.70;;;0.70;;
10523;SDS011;5310;48.638;9.060;2022-11-12T06:03:32;0.60;;;0.60;;
10523;SDS011;5310;48.638;9.060;2022-11-12T06:05:58;0.70;;;0.70;;
10523;SDS011;5310;48.638;9.060;2022-11-12T06:08:24;0.60;;;0.60;;
10523;SDS011;5310;48.638;9.060;2022-11-12T06:10:50;0.60;;;0.60;;
10523;SDS011;5310;48.638;9.060;2022-11-12T06:13:17;0.60;;;0.60;;
10523;SDS011;5310;48.638;9.060;2022-11-12T06:15:43;0.70;;;0.70;;
10523;SDS011;5310;48.638;9.060;2022-11-12T06:18:09;0.80;;;0.80;;
10523;SDS011;5310;48.638;9.060;2022-11-12T06:20:36;0.85;;;0.85;;
10523;SDS011;5310;48.638;9.060;2022-11-12T06:23:02;0.90;;;0.90;;
10523;SDS011;5310;48.638;9.060;2022-11-12T06:25:28;0.93;;;0.93;;
10523;SDS011;5310;48.638;9.060;2022-11-12T06:27:54;1.02;;;1.02;;
10523;SDS011;5310;48.638;9.060;2022-11-12T06:30:20;1.00;;;1.00;;
10523;SDS011;5310;48.638;9.060;2022-11-12T06:32:46;1.10;;;1.10;;
10523;SDS011;5310;48.638;9.060;2022-11-12T06:35:12;1.00;;;1.00;;
10523;SDS011;5310;48.638;9.060;2022-11-12T06:37:39;1.00;;;1.00;;
10523;SDS011;5310;48.638;9.060;2022-11-12T06:40:05;1.00;;;1.00;;
10523;SDS011;5310;48.638;9.060;2022-11-12T06:42:32;0.82;;;0.82;;
10523;SDS011;5310;48.638;9.060;2022-11-12T06:44:58;0.80;;;0.80;;
10523;SDS011;5310;48.638;9.060;2022-11-12T06:47:24;0.80;;;0.80;;
10523;SDS011;5310;48.638;9.060;2022-11-12T06:49:50;0.70;;;0.70;;
10523;SDS011;5310;48.638;9.060;2022-11-12T06:52:16;0.77;;;0.77;;
10523;SDS011;5310;48.638;9.060;2022-11-12T06:54:42;0.63;;;0.63;;
10523;SDS011;5310;48.638;9.060;2022-11-12T06:57:08;0.70;;;0.70;;
10523;SDS011;5310;48.638;9.060;2022-11-12T06:59:34;0.70;;;0.70;;
10523;SDS011;5310;48.638;9.060;2022-11-12T07:02:00;0.70;;;0.70;;
10523;SDS011;5310;48.638;9.060;2022-11-12T07:04:27;0.70;;;0.70;;
10523;SDS011;5310;48.638;9.060;2022-11-12T07:06:52;0.70;;;0.70;;
10523;SDS011;5310;48.638;9.060;2022-11-12T07:09:18;0.90;;;0.90;;
10523;SDS011;5310;48.638;9.060;2022-11-12T07:11:44;1.00;;;1.00;;
10523;SDS011;5310;48.638;9.060;2022-11-12T07:14:10;1.00;;;1.00;;
10523;SDS011;5310;48.638;9.060;2022-11-12T07:16:36;0.97;;;0.97;;
10523;SDS011;5310;48.638;9.060;2022-11-12T07:19:02;1.00;;;1.00;;
10523;SDS011;5310;48.638;9.060;2022-11-12T07:21:28;0.80;;;0.80;;
10523;SDS011;5310;48.638;9.060;2022-11-12T07:23:54;0.80;;;0.80;;
10523;SDS011;5310;48.638;9.060;2022-11-12T07:26:21;0.75;;;0.75;;
10523;SDS011;5310;48.638;9.060;2022-11-12T07:28:49;0.70;;;0.70;;
10523;SDS011;5310;48.638;9.060;2022-11-12T07:31:16;0.60;;;0.60;;
10523;SDS011;5310;48.638;9.060;2022-11-12T07:33:45;0.60;;;0.60;;
10523;SDS011;5310;48.638;9.060;2022-11-12T07:36:13;0.60;;;0.60;;
10523;SDS011;5310;48.638;9.060;2022-11-12T07:38:40;0.75;;;0.75;;
10523;SDS011;5310;48.638;9.060;2022-11-12T07:41:11;0.93;;;0.93;;
10523;SDS011;5310;48.638;9.060;2022-11-12T07:43:38;1.00;;;1.00;;
10523;SDS011;5310;48.638;9.060;2022-11-12T07:46:07;0.70;;;0.70;;
10523;SDS011;5310;48.638;9.060;2022-11-12T07:48:33;0.70;;;0.70;;
10523;SDS011;5310;48.638;9.060;2022-11-12T07:51:20;0.60;;;0.60;;
10523;SDS011;5310;48.638;9.060;2022-11-12T07:53:46;0.60;;;0.60;;
10523;SDS011;5310;48.638;9.060;2022-11-12T07:56:15;0.68;;;0.68;;
10523;SDS011;5310;48.638;9.060;2022-11-12T07:58:42;0.88;;;0.88;;
10523;SDS011;5310;48.638;9.060;2022-11-12T08:03:53;0.80;;;0.80;;
10523;SDS011;5310;48.638;9.060;2022-11-12T08:06:19;0.60;;;0.60;;
10523;SDS011;5310;48.638;9.060;2022-11-12T08:08:45;0.60;;;0.60;;
10523;SDS011;5310;48.638;9.060;2022-11-12T08:11:11;0.60;;;0.60;;
10523;SDS011;5310;48.638;9.060;2022-11-12T08:13:37;0.80;;;0.80;;
10523;SDS011;5310;48.638;9.060;2022-11-12T08:16:03;0.80;;;0.80;;
10523;SDS011;5310;48.638;9.060;2022-11-12T08:18:30;0.70;;;0.70;;
10523;SDS011;5310;48.638;9.060;2022-11-12T08:20:58;0.60;;;0.60;;
10523;SDS011;5310;48.638;9.060;2022-11-12T08:23:24;0.50;;;0.50;;
10523;SDS011;5310;48.638;9.060;2022-11-12T08:25:50;0.70;;;0.70;;
10523;SDS011;5310;48.638;9.060;2022-11-12T08:28:16;0.83;;;0.83;;
10523;SDS011;5310;48.638;9.060;2022-11-12T08:30:43;0.70;;;0.70;;
10523;SDS011;5310;48.638;9.060;2022-11-12T08:33:09;0.60;;;0.60;;
10523;SDS011;5310;48.638;9.060;2022-11-12T08:35:36;0.50;;;0.50;;
10523;SDS011;5310;48.638;9.060;2022-11-12T08:38:04;0.60;;;0.60;;
10523;SDS011;5310;48.638;9.060;2022-11-12T08:40:35;0.50;;;0.50;;
10523;SDS011;5310;48.638;9.060;2022-11-12T08:43:02;0.70;;;0.70;;
10523;SDS011;5310;48.638;9.060;2022-11-12T08:45:37;0.70;;;0.70;;
10523;SDS011;5310;48.638;9.060;2022-11-12T08:48:04;0.50;;;0.50;;
10523;SDS011;5310;48.638;9.060;2022-11-12T08:50:32;0.60;;;0.60;;
10523;SDS011;5310;48.638;9.060;2022-11-12T08:53:01;0.70;;;0.70;;
10523;SDS011;5310;48.638;9.060;2022-11-12T08:55:29;0.60;;;0.60;;
10523;SDS011;5310;48.638;9.060;2022-11-12T08:57:55;0.60;;;0.60;;
10523;SDS011;5310;48.638;9.060;2022-11-12T09:00:26;0.70;;;0.70;;
10523;SDS011;5310;48.638;9.060;2022-11-12T09:02:52;0.50;;;0.50;;
10523;SDS011;5310;48.638;9.060;2022-11-12T09:05:18;0.60;;;0.60;;
10523;SDS011;5310;48.638;9.060;2022-11-12T09:07:44;0.60;;;0.60;;
10523;SDS011;5310;48.638;9.060;2022-11-12T09:10:11;0.50;;;0.50;;
10523;SDS011;5310;48.638;9.060;2022-11-12T09:12:38;0.70;;;0.70;;
10523;SDS011;5310;48.638;9.060;2022-11-12T09:15:04;0.52;;;0.52;;
10523;SDS011;5310;48.638;9.060;2022-11-12T09:17:30;0.60;;;0.60;;
10523;SDS011;5310;48.638;9.060;2022-11-12T09:19:59;0.60;;;0.60;;
10523;SDS011;5310;48.638;9.060;2022-11-12T09:22:24;0.40;;;0.40;;
10523;SDS011;5310;48.638;9.060;2022-11-12T09:24:50;0.70;;;0.70;;
10523;SDS011;5310;48.638;9.060;2022-11-12T09:27:16;0.52;;;0.52;;
10523;SDS011;5310;48.638;9.060;2022-11-12T09:29:41;0.67;;;0.67;;
10523;SDS011;5310;48.638;9.060;2022-11-12T09:32:07;0.50;;;0.50;;
10523;SDS011;5310;48.638;9.060;2022-11-12T09:34:33;0.63;;;0.63;;
10523;SDS011;5310;48.638;9.060;2022-11-12T09:36:59;0.50;;;0.50;;
10523;SDS011;5310;48.638;9.060;2022-11-12T09:39:25;0.60;;;0.60;;
10523;SDS011;5310;48.638;9.060;2022-11-12T09:41:51;0.50;;;0.50;;
10523;SDS011;5310;48.638;9.060;2022-11-12T09:44:18;0.50;;;0.50;;
10523;SDS011;5310;48.638;9.060;2022-11-12T09:49:27;0.68;;;0.68;;
10523;SDS011;5310;48.638;9.060;2022-11-12T09:52:00;0.40;;;0.40;;
10523;SDS011;5310;48.638;9.060;2022-11-12T09:54:31;0.60;;;0.60;;
10523;SDS011;5310;48.638;9.060;2022-11-12T09:56:59;0.40;;;0.40;;
10523;SDS011;5310;48.638;9.060;2022-11-12T09:59:28;0.50;;;0.50;;
10523;SDS011;5310;48.638;9.060;2022-11-12T10:02:09;0.50;;;0.50;;
10523;SDS011;5310;48.638;9.060;2022-11-12T10:04:59;0.45;;;0.45;;
10523;SDS011;5310;48.638;9.060;2022-11-12T10:07:53;0.40;;;0.40;;
10523;SDS011;5310;48.638;9.060;2022-11-12T10:15:40;0.40;;;0.40;;
10523;SDS011;5310;48.638;9.060;2022-11-12T10:21:50;0.50;;;0.50;;
10523;SDS011;5310;48.638;9.060;2022-11-12T10:24:18;0.57;;;0.57;;
10523;SDS011;5310;48.638;9.060;2022-11-12T10:26:45;0.47;;;0.47;;
10523;SDS011;5310;48.638;9.060;2022-11-12T10:31:39;0.60;;;0.60;;
10523;SDS011;5310;48.638;9.060;2022-11-12T10:34:18;0.40;;;0.40;;
10523;SDS011;5310;48.638;9.060;2022-11-12T10:36:45;0.50;;;0.50;;
10523;SDS011;5310;48.638;9.060;2022-11-12T10:39:33;0.60;;;0.60;;
10523;SDS011;5310;48.638;9.060;2022-11-12T10:42:01;0.50;;;0.50;;
10523;SDS011;5310;48.638;9.060;2022-11-12T10:44:35;0.32;;;0.32;;
10523;SDS011;5310;48.638;9.060;2022-11-12T10:52:29;0.40;;;0.40;;
10523;SDS011;5310;48.638;9.060;2022-11-12T10:55:30;0.50;;;0.50;;
10523;SDS011;5310;48.638;9.060;2022-11-12T11:00:35;0.40;;;0.40;;
10523;SDS011;5310;48.638;9.060;2022-11-12T11:03:05;0.52;;;0.52;;
10523;SDS011;5310;48.638;9.060;2022-11-12T11:05:35;0.40;;;0.40;;
10523;SDS011;5310;48.638;9.060;2022-11-12T11:08:02;0.30;;;0.30;;
10523;SDS011;5310;48.638;9.060;2022-11-12T11:15:58;0.40;;;0.40;;
10523;SDS011;5310;48.638;9.060;2022-11-12T11:18:29;0.40;;;0.40;;
10523;SDS011;5310;48.638;9.060;2022-11-12T11:26:15;0.50;;;0.50;;
10523;SDS011;5310;48.638;9.060;2022-11-12T11:29:19;0.30;;;0.30;;
10523;SDS011;5310;48.638;9.060;2022-11-12T11:31:56;0.40;;;0.40;;
10523;SDS011;5310;48.638;9.060;2022-11-12T11:37:18;0.50;;;0.50;;
10523;SDS011;5310;48.638;9.060;2022-11-12T11:39:56;0.40;;;0.40;;
10523;SDS011;5310;48.638;9.060;2022-11-12T11:43:37;0.40;;;0.40;;
10523;SDS011;5310;48.638;9.060;2022-11-12T11:56:45;0.30;;;0.30;;
10523;SDS011;5310;48.638;9.060;2022-11-12T12:06:47;0.30;;;0.30;;
10523;SDS011;5310;48.638;9.060;2022-11-12T12:09:37;0.40;;;0.40;;
10523;SDS011;5310;48.638;9.060;2022-11-12T12:12:26;0.40;;;0.40;;
10523;SDS011;5310;48.638;9.060;2022-11-12T12:18:08;0.40;;;0.40;;
10523;SDS011;5310;48.638;9.060;2022-11-12T12:23:00;0.30;;;0.30;;
10523;SDS011;5310;48.638;9.060;2022-11-12T12:25:31;0.30;;;0.30;;
10523;SDS011;5310;48.638;9.060;2022-11-12T12:30:41;0.32;;;0.32;;
10523;SDS011;5310;48.638;9.060;2022-11-12T12:36:08;0.40;;;0.40;;
10523;SDS011;5310;48.638;9.060;2022-11-12T12:44:10;0.38;;;0.38;;
10523;SDS011;5310;48.638;9.060;2022-11-12T12:46:41;0.40;;;0.40;;
10523;SDS011;5310;48.638;9.060;2022-11-12T12:49:18;0.40;;;0.40;;
10523;SDS011;5310;48.638;9.060;2022-11-12T12:51:47;0.40;;;0.40;;
10523;SDS011;5310;48.638;9.060;2022-11-12T12:57:04;0.30;;;0.30;;
10523;SDS011;5310;48.638;9.060;2022-11-12T12:59:30;0.30;;;0.30;;
10523;SDS011;5310;48.638;9.060;2022-11-12T13:02:00;0.40;;;0.40;;
10523;SDS011;5310;48.638;9.060;2022-11-12T13:07:18;0.30;;;0.30;;
10523;SDS011;5310;48.638;9.060;2022-11-12T13:09:45;0.38;;;0.38;;
10523;SDS011;5310;48.638;9.060;2022-11-12T13:12:11;0.30;;;0.30;;
10523;SDS011;5310;48.638;9.060;2022-11-12T13:19:44;0.32;;;0.32;;
10523;SDS011;5310;48.638;9.060;2022-11-12T13:43:08;0.40;;;0.40;;
10523;SDS011;5310;48.638;9.060;2022-11-12T13:45:45;0.40;;;0.40;;
10523;SDS011;5310;48.638;9.060;2022-11-12T13:48:25;0.40;;;0.40;;
10523;SDS011;5310;48.638;9.060;2022-11-12T13:50:56;0.40;;;0.40;;
10523;SDS011;5310;48.638;9.060;2022-11-12T13:53:26;0.40;;;0.40;;
10523;SDS011;5310;48.638;9.060;2022-11-12T13:55:53;0.30;;;0.30;;
10523;SDS011;5310;48.638;9.060;2022-11-12T14:00:55;0.30;;;0.30;;
10523;SDS011;5310;48.638;9.060;2022-11-12T14:03:31;0.30;;;0.30;;
10523;SDS011;5310;48.638;9.060;2022-11-12T14:05:58;0.30;;;0.30;;
10523;SDS011;5310;48.638;9.060;2022-11-12T14:16:03;0.40;;;0.40;;
10523;SDS011;5310;48.638;9.060;2022-11-12T14:19:07;0.30;;;0.30;;
10523;SDS011;5310;48.638;9.060;2022-11-12T14:21:40;0.30;;;0.30;;
10523;SDS011;5310;48.638;9.060;2022-11-12T14:24:08;0.40;;;0.40;;
10523;SDS011;5310;48.638;9.060;2022-11-12T14:26:40;0.38;;;0.38;;
10523;SDS011;5310;48.638;9.060;2022-11-12T14:29:17;0.35;;;0.35;;
10523;SDS011;5310;48.638;9.060;2022-11-12T14:31:44;0.30;;;0.30;;
10523;SDS011;5310;48.638;9.060;2022-11-12T14:34:20;0.40;;;0.40;;
10523;SDS011;5310;48.638;9.060;2022-11-12T14:36:46;0.30;;;0.30;;
10523;SDS011;5310;48.638;9.060;2022-11-12T14:39:13;0.40;;;0.40;;
10523;SDS011;5310;48.638;9.060;2022-11-12T14:41:40;0.40;;;0.40;;
10523;SDS011;5310;48.638;9.060;2022-11-12T14:44:09;0.40;;;0.40;;
10523;SDS011;5310;48.638;9.060;2022-11-12T14:46:54;0.50;;;0.50;;
10523;SDS011;5310;48.638;9.060;2022-11-12T14:52:43;0.40;;;0.40;;
10523;SDS011;5310;48.638;9.060;2022-11-12T14:54:57;0.38;;;0.38;;
10523;SDS011;5310;48.638;9.060;2022-11-12T14:59:49;0.38;;;0.38;;
10523;SDS011;5310;48.638;9.060;2022-11-12T15:02:17;0.40;;;0.40;;
10523;SDS011;5310;48.638;9.060;2022-11-12T15:04:50;0.40;;;0.40;;
10523;SDS011;5310;48.638;9.060;2022-11-12T15:07:24;0.47;;;0.47;;
10523;SDS011;5310;48.638;9.060;2022-11-12T15:09:56;0.40;;;0.40;;
10523;SDS011;5310;48.638;9.060;2022-11-12T15:12:25;0.40;;;0.40;;
10523;SDS011;5310;48.638;9.060;2022-11-12T15:18:01;0.30;;;0.30;;
10523;SDS011;5310;48.638;9.060;2022-11-12T15:20:28;0.30;;;0.30;;
10523;SDS011;5310;48.638;9.060;2022-11-12T15:22:54;0.40;;;0.40;;
10523;SDS011;5310;48.638;9.060;2022-11-12T15:25:28;0.40;;;0.40;;
10523;SDS011;5310;48.638;9.060;2022-11-12T15:27:54;0.40;;;0.40;;
10523;SDS011;5310;48.638;9.060;2022-11-12T15:30:35;0.40;;;0.40;;
10523;SDS011;5310;48.638;9.060;2022-11-12T15:35:37;0.50;;;0.50;;
10523;SDS011;5310;48.638;9.060;2022-11-12T15:38:11;0.50;;;0.50;;
10523;SDS011;5310;48.638;9.060;2022-11-12T15:40:42;0.50;;;0.50;;
10523;SDS011;5310;48.638;9.060;2022-11-12T15:43:31;0.40;;;0.40;;
10523;SDS011;5310;48.638;9.060;2022-11-12T15:46:09;0.43;;;0.43;;
10523;SDS011;5310;48.638;9.060;2022-11-12T15:48:38;0.40;;;0.40;;
10523;SDS011;5310;48.638;9.060;2022-11-12T15:51:04;0.40;;;0.40;;
10523;SDS011;5310;48.638;9.060;2022-11-12T15:53:30;0.50;;;0.50;;
10523;SDS011;5310;48.638;9.060;2022-11-12T15:55:55;0.50;;;0.50;;
10523;SDS011;5310;48.638;9.060;2022-11-12T15:58:27;0.38;;;0.38;;
10523;SDS011;5310;48.638;9.060;2022-11-12T16:00:54;0.40;;;0.40;;
10523;SDS011;5310;48.638;9.060;2022-11-12T16:03:20;0.47;;;0.47;;
10523;SDS011;5310;48.638;9.060;2022-11-12T16:05:46;0.50;;;0.50;;
10523;SDS011;5310;48.638;9.060;2022-11-12T16:08:12;0.40;;;0.40;;
10523;SDS011;5310;48.638;9.060;2022-11-12T16:10:39;0.50;;;0.50;;
10523;SDS011;5310;48.638;9.060;2022-11-12T16:13:10;0.60;;;0.60;;
10523;SDS011;5310;48.638;9.060;2022-11-12T16:15:38;0.40;;;0.40;;
10523;SDS011;5310;48.638;9.060;2022-11-12T16:18:04;0.50;;;0.50;;
10523;SDS011;5310;48.638;9.060;2022-11-12T16:20:30;0.50;;;0.50;;
10523;SDS011;5310;48.638;9.060;2022-11-12T16:22:58;0.50;;;0.50;;
10523;SDS011;5310;48.638;9.060;2022-11-12T16:25:24;0.50;;;0.50;;
10523;SDS011;5310;48.638;9.060;2022-11-12T16:27:54;0.50;;;0.50;;
10523;SDS011;5310;48.638;9.060;2022-11-12T16:30:24;0.50;;;0.50;;
10523;SDS011;5310;48.638;9.060;2022-11-12T16:32:52;0.60;;;0.60;;
10523;SDS011;5310;48.638;9.060;2022-11-12T16:35:17;0.50;;;0.50;;
10523;SDS011;5310;48.638;9.060;2022-11-12T16:37:44;0.70;;;0.70;;
10523;SDS011;5310;48.638;9.060;2022-11-12T16:40:15;0.43;;;0.43;;
10523;SDS011;5310;48.638;9.060;2022-11-12T16:42:42;0.60;;;0.60;;
10523;SDS011;5310;48.638;9.060;2022-11-12T16:45:15;0.40;;;0.40;;
10523;SDS011;5310;48.638;9.060;2022-11-12T16:47:46;0.50;;;0.50;;
10523;SDS011;5310;48.638;9.060;2022-11-12T16:50:14;0.55;;;0.55;;
10523;SDS011;5310;48.638;9.060;2022-11-12T16:52:41;0.50;;;0.50;;
10523;SDS011;5310;48.638;9.060;2022-11-12T16:55:07;0.50;;;0.50;;
10523;SDS011;5310;48.638;9.060;2022-11-12T16:57:33;0.60;;;0.60;;
10523;SDS011;5310;48.638;9.060;2022-11-12T16:59:59;0.50;;;0.50;;
10523;SDS011;5310;48.638;9.060;2022-11-12T17:02:25;0.52;;;0.52;;
10523;SDS011;5310;48.638;9.060;2022-11-12T17:04:53;0.50;;;0.50;;
10523;SDS011;5310;48.638;9.060;2022-11-12T17:07:19;0.50;;;0.50;;
10523;SDS011;5310;48.638;9.060;2022-11-12T17:09:44;0.40;;;0.40;;
10523;SDS011;5310;48.638;9.060;2022-11-12T17:12:10;0.60;;;0.60;;
10523;SDS011;5310;48.638;9.060;2022-11-12T17:14:36;0.40;;;0.40;;
10523;SDS011;5310;48.638;9.060;2022-11-12T17:17:02;0.70;;;0.70;;
10523;SDS011;5310;48.638;9.060;2022-11-12T17:19:28;0.50;;;0.50;;
10523;SDS011;5310;48.638;9.060;2022-11-12T17:21:54;0.60;;;0.60;;